TimeAKDT,TemperatureF,Dew PointF,Humidity,Sea Level PressureIn,VisibilityMPH,Wind Direction,Wind SpeedMPH,Gust SpeedMPH,PrecipitationIn,Events,Conditions,WindDirDegrees,DateUTC
12:53 AM,55.9,54.0,93,29.51,10.0,SE,4.6,-,0.03,Rain,Light Rain,140,2013-08-18 08:53:00
1:53 AM,55.9,53.1,90,29.50,10.0,Calm,Calm,-,0.00,Rain,Light Rain,0,2013-08-18 09:53:00
2:53 AM,53.1,53.1,100,29.50,10.0,WNW,3.5,-,0.00,,Overcast,300,2013-08-18 10:53:00
3:53 AM,53.1,53.1,100,29.50,10.0,Calm,Calm,-,0.00,Rain,Light Rain,0,2013-08-18 11:53:00
4:53 AM,52.0,52.0,100,29.49,10.0,Calm,Calm,-,0.01,,Mostly Cloudy,0,2013-08-18 12:53:00
5:53 AM,53.1,52.0,96,29.49,10.0,Calm,Calm,-,N/A,,Mostly Cloudy,0,2013-08-18 13:53:00
6:53 AM,53.1,52.0,96,29.49,10.0,Calm,Calm,-,0.00,,Overcast,0,2013-08-18 14:53:00
7:53 AM,53.1,53.1,100,29.49,10.0,Calm,Calm,-,0.01,Rain,Light Rain,0,2013-08-18 15:53:00
8:53 AM,55.0,53.1,93,29.50,10.0,Calm,Calm,-,0.00,,Overcast,0,2013-08-18 16:53:00
9:53 AM,55.0,53.1,93,29.51,10.0,SSE,4.6,-,0.00,,Overcast,160,2013-08-18 17:53:00
10:53 AM,55.0,53.1,93,29.52,10.0,SSE,4.6,-,0.00,,Overcast,150,2013-08-18 18:53:00
11:53 AM,55.9,54.0,93,29.53,10.0,South,3.5,-,N/A,,Overcast,180,2013-08-18 19:53:00
12:53 PM,55.9,55.0,97,29.54,10.0,SSW,8.1,-,0.00,Rain,Light Rain,210,2013-08-18 20:53:00
1:53 PM,57.9,54.0,87,29.56,10.0,South,5.8,-,0.00,,Mostly Cloudy,180,2013-08-18 21:53:00
2:53 PM,57.9,52.0,81,29.57,10.0,SW,5.8,-,N/A,,Overcast,220,2013-08-18 22:53:00
3:53 PM,57.9,53.1,84,29.58,10.0,SSW,6.9,-,N/A,,Scattered Clouds,200,2013-08-18 23:53:00
4:53 PM,60.1,53.1,78,29.58,10.0,SSW,5.8,-,N/A,,Mostly Cloudy,200,2013-08-19 00:53:00
5:53 PM,60.1,54.0,80,29.59,10.0,SW,4.6,-,N/A,,Partly Cloudy,220,2013-08-19 01:53:00
6:53 PM,60.1,54.0,80,29.60,10.0,SW,3.5,-,N/A,,Overcast,220,2013-08-19 02:53:00
7:53 PM,57.0,52.0,83,29.62,10.0,SW,4.6,-,N/A,,Mostly Cloudy,220,2013-08-19 03:53:00
8:53 PM,57.0,52.0,83,29.63,10.0,Calm,Calm,-,N/A,,Mostly Cloudy,0,2013-08-19 04:53:00
9:53 PM,55.0,52.0,89,29.64,10.0,Calm,Calm,-,N/A,,Overcast,0,2013-08-19 05:53:00
10:53 PM,55.0,53.1,93,29.65,10.0,Calm,Calm,-,N/A,,Overcast,0,2013-08-19 06:53:00
11:53 PM,54.0,53.1,97,29.66,10.0,Calm,Calm,-,N/A,,Overcast,0,2013-08-19 07:53:00